• Join FlightAware (Why Join?)
  • Login
  • US Flag 
02:35PM EDT


 

Airport Tracker/Info


-or-


 

Live Flight TrackerFlight Track Log ✈ MTN8305 ✈ 08-May-2013 ✈ KEWR - KBWI

Flight Track Log - Related Links

Times and Time Zones

All times are in EDT time to prevent confusion due to time zone crossing. See the MTN8305 flight status page for this flight to view local times or setup timezone preferences in your user account.

Time Position Orientation Groundspeed Altitude Reporting Facility
EDT Latitude Longitude Course Direction KTS MPH feet Rate Location/Type
04:10AM 40.7167 -74.1500 303° West 110 127 1,200  Level New York TRACON
04:11AM 40.7333 -74.1833 303° West 129 148 2,200 960 Climbing New York TRACON
04:12AM 40.7167 -74.2333 246° West 124 143 3,200 840 Climbing New York TRACON
04:13AM 40.7000 -74.2833 246° West 129 148 4,000 360 Climbing New York TRACON
04:14AM 40.7000 -74.3333 270° West 168 193 4,000  Level New York TRACON
04:15AM 40.6833 -74.4000 252° West 176 203 4,000  Level New York TRACON
04:16AM 40.6667 -74.4667 252° West 177 204 4,000  Level New York TRACON
04:17AM 40.6667 -74.5167 270° West 179 206 4,000  Level New York TRACON
04:18AM 40.6500 -74.5833 252° West 178 205 4,000  Level New York TRACON
04:19AM 40.6333 -74.6333 246° West 177 204 4,000  Level New York TRACON
04:20AM 40.6167 -74.7000 252° West 180 207 4,000  Level New York TRACON
04:21AM 40.6167 -74.7667 270° West 180 207 4,000  Level New York TRACON
04:23AM 40.5936 -74.8533 251° West  Level FlightAware Approximate
04:28AM 40.5500 -75.2167 261° West 178 205 4,000  Level Philadelphia TRACON
04:29AM 40.5167 -75.2500 217° Southwest 156 180 4,000  Level Philadelphia TRACON
04:30AM 40.5363 -75.2043 281° West  Level FlightAware Approximate
04:30AM 40.4833 -75.3000 229° Southwest 165 190 4,000  Level Philadelphia TRACON
04:31AM 40.5298 -75.2576 261° West  Level FlightAware Approximate
04:31AM 40.4500 -75.3333 217° Southwest 163 188 4,000  Level Philadelphia TRACON
04:32AM 40.5233 -75.3109 261° West  Level FlightAware Approximate
04:32AM 40.4000 -75.3667 207° Southwest 165 190 4,000  Level Philadelphia TRACON
04:33AM 40.5168 -75.3642 261° West  Level FlightAware Approximate
04:33AM 40.3667 -75.4167 229° Southwest 169 194 4,000  Level Philadelphia TRACON
04:34AM 40.3333 -75.4500 217° Southwest 162 186 4,000  Level Philadelphia TRACON
04:35AM 40.3000 -75.4833 217° Southwest 163 188 4,000  Level Philadelphia TRACON
04:36AM 40.2667 -75.5167 217° Southwest 164 189 4,000  Level Philadelphia TRACON
04:37AM 40.2333 -75.5667 229° Southwest 161 185 4,000  Level Philadelphia TRACON
04:38AM 40.2000 -75.6000 217° Southwest 162 186 4,100  Climbing Philadelphia TRACON
04:39AM 40.1667 -75.6333 217° Southwest 164 189 4,100 -60 Level Philadelphia TRACON
04:40AM 40.1333 -75.6667 217° Southwest 164 189 4,000 -60 Descending Philadelphia TRACON
04:41AM 40.1000 -75.7167 229° Southwest 158 182 4,000  Level Philadelphia TRACON
04:42AM 40.0500 -75.7500 207° Southwest 161 185 4,000  Level Philadelphia TRACON
04:43AM 40.0167 -75.7833 217° Southwest 163 188 4,000  Level Philadelphia TRACON
04:44AM 39.9833 -75.8167 217° Southwest 164 189 4,100  Climbing Philadelphia TRACON
04:45AM 39.9500 -75.8667 229° Southwest 162 186 4,100  Level Philadelphia TRACON
04:46AM 39.9167 -75.9000 217° Southwest 163 188 4,100  Level Philadelphia TRACON
04:47AM 39.8833 -75.9333 218° Southwest 163 188 4,100 -60 Level Philadelphia TRACON
04:49AM 39.8167 -76.0000 218° Southwest 163 188 4,000 -60 Descending Potomac TRACON
04:50AM 39.7833 -76.0500 229° Southwest 162 186 4,000  Level Potomac TRACON
04:51AM 39.7500 -76.0833 218° Southwest 163 188 4,000  Level Potomac TRACON
04:52AM 39.7167 -76.1167 218° Southwest 164 189 4,000  Level Potomac TRACON
04:53AM 39.7000 -76.1667 247° West 165 190 4,000  Level Potomac TRACON
04:54AM 39.6667 -76.2167 229° Southwest 164 189 4,000  Level Potomac TRACON
04:55AM 39.6500 -76.2667 247° West 164 189 4,000  Level Potomac TRACON
04:56AM 39.6167 -76.3167 229° Southwest 163 188 4,000  Level Potomac TRACON
04:57AM 39.6000 -76.3667 247° West 163 188 4,000  Level Potomac TRACON
04:58AM 39.5667 -76.4167 229° Southwest 163 188 4,000 -120 Level Potomac TRACON
04:59AM 39.5500 -76.4667 247° West 167 192 3,800 -420 Descending Potomac TRACON
05:00AM 39.5167 -76.5167 207° Southwest 173 199 3,200 -420 Descending Potomac TRACON
05:01AM 39.4784 -76.5054 207° Southwest  Level Estimated
05:01AM 39.4833 -76.5667 229° Southwest 166 191 3,000  Level Potomac TRACON
05:02AM 39.4667 -76.6000 237° Southwest 157 181 3,000  Level Potomac TRACON
05:03AM 39.4333 -76.6500 229° Southwest 159 183 3,000  Level Potomac TRACON
05:04AM 39.4167 -76.7000 247° West 159 183 3,000  Level Potomac TRACON
05:05AM 39.3833 -76.7500 229° Southwest 161 185 3,000  Level Potomac TRACON
05:06AM 39.3667 -76.8000 247° West 161 185 3,000  Level Potomac TRACON
05:07AM 39.3333 -76.8000 180° South 158 182 3,000 -300 Level Potomac TRACON
05:08AM 39.3000 -76.7667 142° Southeast 164 189 2,500 -600 Descending Potomac TRACON
05:09AM 39.2667 -76.7333 142° Southeast 166 191 1,900 -780 Descending Potomac TRACON
05:10AM 39.2167 -76.7000 153° Southeast 170 196 1,000 -900 Descending Potomac TRACON
05:12AM 39.1754 -76.6683 184° South  Level Estimated
05:19AM 39.1754 -76.6683 184° South  Level Estimated
05:20AM 39.1754 -76.6683 184° South  Level Estimated
05:21AM 39.1754 -76.6683 184° South  Level Estimated
05:22AM 39.1754 -76.6683 184° South  Level Estimated